sensor_id;sensor_type;location;lat;lon;timestamp;temperature;humidity
23289;DHT22;11813;50.834;4.280;2022-08-19T00:01:23;21.10;99.90
23289;DHT22;11813;50.834;4.280;2022-08-19T00:03:49;21.10;99.90
23289;DHT22;11813;50.834;4.280;2022-08-19T00:06:15;21.10;99.90
23289;DHT22;11813;50.834;4.280;2022-08-19T00:08:41;21.10;99.90
23289;DHT22;11813;50.834;4.280;2022-08-19T00:11:07;21.10;99.90
23289;DHT22;11813;50.834;4.280;2022-08-19T00:13:33;21.20;99.90
23289;DHT22;11813;50.834;4.280;2022-08-19T00:15:59;21.20;99.90
23289;DHT22;11813;50.834;4.280;2022-08-19T00:18:26;21.30;99.90
23289;DHT22;11813;50.834;4.280;2022-08-19T00:20:52;21.30;99.90
23289;DHT22;11813;50.834;4.280;2022-08-19T00:23:18;21.20;99.90
23289;DHT22;11813;50.834;4.280;2022-08-19T00:25:44;21.20;99.90
23289;DHT22;11813;50.834;4.280;2022-08-19T00:28:09;21.20;99.90
23289;DHT22;11813;50.834;4.280;2022-08-19T00:30:35;21.20;99.90
23289;DHT22;11813;50.834;4.280;2022-08-19T00:33:02;21.10;99.90
23289;DHT22;11813;50.834;4.280;2022-08-19T00:35:27;21.10;99.90
23289;DHT22;11813;50.834;4.280;2022-08-19T00:37:54;20.90;99.90
23289;DHT22;11813;50.834;4.280;2022-08-19T00:40:19;20.90;99.90
23289;DHT22;11813;50.834;4.280;2022-08-19T00:42:45;20.90;99.90
23289;DHT22;11813;50.834;4.280;2022-08-19T00:45:16;21.00;99.90
23289;DHT22;11813;50.834;4.280;2022-08-19T00:47:44;21.10;99.90
23289;DHT22;11813;50.834;4.280;2022-08-19T00:50:11;21.10;99.90
23289;DHT22;11813;50.834;4.280;2022-08-19T00:52:41;21.10;99.90
23289;DHT22;11813;50.834;4.280;2022-08-19T00:55:15;21.20;99.90
23289;DHT22;11813;50.834;4.280;2022-08-19T00:57:47;21.30;99.90
23289;DHT22;11813;50.834;4.280;2022-08-19T01:00:17;21.30;99.90
23289;DHT22;11813;50.834;4.280;2022-08-19T01:02:44;21.10;99.90
23289;DHT22;11813;50.834;4.280;2022-08-19T01:05:14;21.10;99.90
23289;DHT22;11813;50.834;4.280;2022-08-19T01:07:41;21.10;99.90
23289;DHT22;11813;50.834;4.280;2022-08-19T01:10:14;21.10;99.90
23289;DHT22;11813;50.834;4.280;2022-08-19T01:12:40;21.10;99.90
23289;DHT22;11813;50.834;4.280;2022-08-19T01:15:09;21.20;99.90
23289;DHT22;11813;50.834;4.280;2022-08-19T01:17:38;21.20;99.90
23289;DHT22;11813;50.834;4.280;2022-08-19T01:20:06;21.10;99.90
23289;DHT22;11813;50.834;4.280;2022-08-19T01:22:39;21.00;99.90
23289;DHT22;11813;50.834;4.280;2022-08-19T01:25:07;20.90;99.90
23289;DHT22;11813;50.834;4.280;2022-08-19T01:27:46;20.70;99.90
23289;DHT22;11813;50.834;4.280;2022-08-19T01:30:23;20.70;99.90
23289;DHT22;11813;50.834;4.280;2022-08-19T01:32:50;20.60;99.90
23289;DHT22;11813;50.834;4.280;2022-08-19T01:35:18;20.60;99.90
23289;DHT22;11813;50.834;4.280;2022-08-19T01:37:51;20.60;99.90
23289;DHT22;11813;50.834;4.280;2022-08-19T01:40:18;20.50;99.90
23289;DHT22;11813;50.834;4.280;2022-08-19T01:42:49;20.40;99.90
23289;DHT22;11813;50.834;4.280;2022-08-19T01:45:16;20.30;99.90
23289;DHT22;11813;50.834;4.280;2022-08-19T01:47:42;20.40;99.90
23289;DHT22;11813;50.834;4.280;2022-08-19T01:50:09;20.40;99.90
23289;DHT22;11813;50.834;4.280;2022-08-19T01:52:37;20.40;99.90
23289;DHT22;11813;50.834;4.280;2022-08-19T01:55:04;20.30;99.90
23289;DHT22;11813;50.834;4.280;2022-08-19T01:57:30;20.20;99.90
23289;DHT22;11813;50.834;4.280;2022-08-19T01:59:56;20.20;99.90
23289;DHT22;11813;50.834;4.280;2022-08-19T02:02:22;20.20;99.90
23289;DHT22;11813;50.834;4.280;2022-08-19T02:04:48;20.10;99.90
23289;DHT22;11813;50.834;4.280;2022-08-19T02:07:14;20.20;99.90
23289;DHT22;11813;50.834;4.280;2022-08-19T02:09:40;20.20;99.90
23289;DHT22;11813;50.834;4.280;2022-08-19T02:12:07;20.20;99.90
23289;DHT22;11813;50.834;4.280;2022-08-19T02:14:35;20.10;99.90
23289;DHT22;11813;50.834;4.280;2022-08-19T02:17:00;20.10;99.90
23289;DHT22;11813;50.834;4.280;2022-08-19T02:19:26;20.10;99.90
23289;DHT22;11813;50.834;4.280;2022-08-19T02:21:53;20.00;99.90
23289;DHT22;11813;50.834;4.280;2022-08-19T02:24:18;20.00;99.90
23289;DHT22;11813;50.834;4.280;2022-08-19T02:26:44;20.10;99.90
23289;DHT22;11813;50.834;4.280;2022-08-19T02:29:10;20.00;99.90
23289;DHT22;11813;50.834;4.280;2022-08-19T02:31:36;19.90;99.90
23289;DHT22;11813;50.834;4.280;2022-08-19T02:34:01;19.80;99.90
23289;DHT22;11813;50.834;4.280;2022-08-19T02:36:27;19.90;99.90
23289;DHT22;11813;50.834;4.280;2022-08-19T02:38:53;19.80;99.90
23289;DHT22;11813;50.834;4.280;2022-08-19T02:41:25;19.80;99.90
23289;DHT22;11813;50.834;4.280;2022-08-19T02:43:52;19.80;99.90
23289;DHT22;11813;50.834;4.280;2022-08-19T02:46:24;19.80;99.90
23289;DHT22;11813;50.834;4.280;2022-08-19T02:48:54;19.80;99.90
23289;DHT22;11813;50.834;4.280;2022-08-19T02:51:22;19.70;99.90
23289;DHT22;11813;50.834;4.280;2022-08-19T02:53:48;19.70;99.90
23289;DHT22;11813;50.834;4.280;2022-08-19T02:56:14;19.80;99.90
23289;DHT22;11813;50.834;4.280;2022-08-19T02:58:41;19.80;99.90
23289;DHT22;11813;50.834;4.280;2022-08-19T03:01:07;19.80;99.90
23289;DHT22;11813;50.834;4.280;2022-08-19T03:03:33;19.70;99.90
23289;DHT22;11813;50.834;4.280;2022-08-19T03:06:11;19.70;99.90
23289;DHT22;11813;50.834;4.280;2022-08-19T03:08:40;19.70;99.90
23289;DHT22;11813;50.834;4.280;2022-08-19T03:11:06;19.70;99.90
23289;DHT22;11813;50.834;4.280;2022-08-19T03:13:37;19.70;99.90
23289;DHT22;11813;50.834;4.280;2022-08-19T03:16:04;19.70;99.90
23289;DHT22;11813;50.834;4.280;2022-08-19T03:18:30;19.60;99.90
23289;DHT22;11813;50.834;4.280;2022-08-19T03:20:57;19.60;99.90
23289;DHT22;11813;50.834;4.280;2022-08-19T03:23:23;19.60;99.90
23289;DHT22;11813;50.834;4.280;2022-08-19T03:25:50;19.50;99.90
23289;DHT22;11813;50.834;4.280;2022-08-19T03:28:17;19.50;99.90
23289;DHT22;11813;50.834;4.280;2022-08-19T03:30:53;19.50;99.90
23289;DHT22;11813;50.834;4.280;2022-08-19T03:33:22;19.50;99.90
23289;DHT22;11813;50.834;4.280;2022-08-19T03:38:28;19.40;99.90
23289;DHT22;11813;50.834;4.280;2022-08-19T03:40:53;19.50;99.90
23289;DHT22;11813;50.834;4.280;2022-08-19T03:43:19;19.40;99.90
23289;DHT22;11813;50.834;4.280;2022-08-19T03:45:45;19.30;99.90
23289;DHT22;11813;50.834;4.280;2022-08-19T03:48:10;19.20;99.90
23289;DHT22;11813;50.834;4.280;2022-08-19T03:50:40;19.20;99.90
23289;DHT22;11813;50.834;4.280;2022-08-19T03:53:06;19.20;99.90
23289;DHT22;11813;50.834;4.280;2022-08-19T03:55:38;19.20;99.90
23289;DHT22;11813;50.834;4.280;2022-08-19T03:58:04;19.10;99.90
23289;DHT22;11813;50.834;4.280;2022-08-19T04:00:29;18.80;99.90
23289;DHT22;11813;50.834;4.280;2022-08-19T04:02:55;18.80;99.90
23289;DHT22;11813;50.834;4.280;2022-08-19T04:05:20;18.90;99.90
23289;DHT22;11813;50.834;4.280;2022-08-19T04:07:46;18.90;99.90
23289;DHT22;11813;50.834;4.280;2022-08-19T04:10:11;18.80;99.90
23289;DHT22;11813;50.834;4.280;2022-08-19T04:12:37;18.60;99.90
23289;DHT22;11813;50.834;4.280;2022-08-19T04:15:03;18.60;99.90
23289;DHT22;11813;50.834;4.280;2022-08-19T04:17:29;18.60;99.90
23289;DHT22;11813;50.834;4.280;2022-08-19T04:19:54;18.60;99.90
23289;DHT22;11813;50.834;4.280;2022-08-19T04:22:20;18.60;99.90
23289;DHT22;11813;50.834;4.280;2022-08-19T04:24:45;18.50;99.90
23289;DHT22;11813;50.834;4.280;2022-08-19T04:27:11;18.40;99.90
23289;DHT22;11813;50.834;4.280;2022-08-19T04:29:36;18.40;99.90
23289;DHT22;11813;50.834;4.280;2022-08-19T04:32:04;18.30;99.90
23289;DHT22;11813;50.834;4.280;2022-08-19T04:34:30;18.20;99.90
23289;DHT22;11813;50.834;4.280;2022-08-19T04:36:57;18.20;99.90
23289;DHT22;11813;50.834;4.280;2022-08-19T04:39:27;18.10;99.90
23289;DHT22;11813;50.834;4.280;2022-08-19T04:42:14;18.10;99.90
23289;DHT22;11813;50.834;4.280;2022-08-19T04:44:59;17.90;99.90
23289;DHT22;11813;50.834;4.280;2022-08-19T04:47:24;18.00;99.90
23289;DHT22;11813;50.834;4.280;2022-08-19T04:49:51;18.00;99.90
23289;DHT22;11813;50.834;4.280;2022-08-19T04:52:17;18.00;99.90
23289;DHT22;11813;50.834;4.280;2022-08-19T04:54:42;18.00;99.90
23289;DHT22;11813;50.834;4.280;2022-08-19T04:57:08;18.00;99.90
23289;DHT22;11813;50.834;4.280;2022-08-19T04:59:36;17.80;99.90
23289;DHT22;11813;50.834;4.280;2022-08-19T05:02:03;18.00;99.90
23289;DHT22;11813;50.834;4.280;2022-08-19T05:04:29;17.90;99.90
23289;DHT22;11813;50.834;4.280;2022-08-19T05:06:56;17.80;99.90
23289;DHT22;11813;50.834;4.280;2022-08-19T05:09:22;17.80;99.90
23289;DHT22;11813;50.834;4.280;2022-08-19T05:11:48;18.00;99.90
23289;DHT22;11813;50.834;4.280;2022-08-19T05:14:15;18.10;99.90
23289;DHT22;11813;50.834;4.280;2022-08-19T05:16:40;18.00;99.90
23289;DHT22;11813;50.834;4.280;2022-08-19T05:19:06;18.10;99.90
23289;DHT22;11813;50.834;4.280;2022-08-19T05:21:50;18.10;99.90
23289;DHT22;11813;50.834;4.280;2022-08-19T05:24:34;18.20;99.90
23289;DHT22;11813;50.834;4.280;2022-08-19T05:27:00;18.20;99.90
23289;DHT22;11813;50.834;4.280;2022-08-19T05:29:29;18.10;99.90
23289;DHT22;11813;50.834;4.280;2022-08-19T05:31:55;18.20;99.90
23289;DHT22;11813;50.834;4.280;2022-08-19T05:34:22;18.20;99.90
23289;DHT22;11813;50.834;4.280;2022-08-19T05:36:51;18.20;99.90
23289;DHT22;11813;50.834;4.280;2022-08-19T05:39:21;18.30;99.90
23289;DHT22;11813;50.834;4.280;2022-08-19T05:41:49;18.30;99.90
23289;DHT22;11813;50.834;4.280;2022-08-19T05:44:16;18.40;99.90
23289;DHT22;11813;50.834;4.280;2022-08-19T05:46:43;18.50;99.90
23289;DHT22;11813;50.834;4.280;2022-08-19T05:49:09;18.40;99.90
23289;DHT22;11813;50.834;4.280;2022-08-19T05:51:36;18.40;99.90
23289;DHT22;11813;50.834;4.280;2022-08-19T05:54:05;18.50;99.90
23289;DHT22;11813;50.834;4.280;2022-08-19T05:56:32;18.60;99.90
23289;DHT22;11813;50.834;4.280;2022-08-19T05:59:00;18.60;99.90
23289;DHT22;11813;50.834;4.280;2022-08-19T06:01:26;18.80;99.90
23289;DHT22;11813;50.834;4.280;2022-08-19T06:03:52;18.80;99.90
23289;DHT22;11813;50.834;4.280;2022-08-19T06:06:20;18.70;99.90
23289;DHT22;11813;50.834;4.280;2022-08-19T06:08:46;18.80;99.90
23289;DHT22;11813;50.834;4.280;2022-08-19T06:14:07;18.80;99.90
23289;DHT22;11813;50.834;4.280;2022-08-19T06:16:37;18.80;99.90
23289;DHT22;11813;50.834;4.280;2022-08-19T06:19:06;18.70;99.90
23289;DHT22;11813;50.834;4.280;2022-08-19T06:21:33;18.70;99.90
23289;DHT22;11813;50.834;4.280;2022-08-19T06:23:59;18.80;99.90
23289;DHT22;11813;50.834;4.280;2022-08-19T06:26:26;18.90;99.90
23289;DHT22;11813;50.834;4.280;2022-08-19T06:28:52;19.10;99.90
23289;DHT22;11813;50.834;4.280;2022-08-19T06:31:26;19.20;99.90
23289;DHT22;11813;50.834;4.280;2022-08-19T06:33:52;19.30;99.90
23289;DHT22;11813;50.834;4.280;2022-08-19T06:36:23;19.40;99.90
23289;DHT22;11813;50.834;4.280;2022-08-19T06:39:03;19.50;99.90
23289;DHT22;11813;50.834;4.280;2022-08-19T06:41:30;19.40;99.90
23289;DHT22;11813;50.834;4.280;2022-08-19T06:43:56;19.50;99.90
23289;DHT22;11813;50.834;4.280;2022-08-19T06:46:22;19.60;99.90
23289;DHT22;11813;50.834;4.280;2022-08-19T06:48:48;19.80;99.90
23289;DHT22;11813;50.834;4.280;2022-08-19T06:51:16;19.90;99.90
23289;DHT22;11813;50.834;4.280;2022-08-19T06:53:45;20.00;99.90
23289;DHT22;11813;50.834;4.280;2022-08-19T06:56:14;20.00;99.90
23289;DHT22;11813;50.834;4.280;2022-08-19T06:58:40;20.10;99.90
23289;DHT22;11813;50.834;4.280;2022-08-19T07:01:05;20.20;99.90
23289;DHT22;11813;50.834;4.280;2022-08-19T07:03:33;20.30;99.90
23289;DHT22;11813;50.834;4.280;2022-08-19T07:06:04;20.30;99.90
23289;DHT22;11813;50.834;4.280;2022-08-19T07:08:30;20.50;99.90
23289;DHT22;11813;50.834;4.280;2022-08-19T07:10:55;20.60;99.90
23289;DHT22;11813;50.834;4.280;2022-08-19T07:13:21;20.70;99.90
23289;DHT22;11813;50.834;4.280;2022-08-19T07:15:48;20.80;99.90
23289;DHT22;11813;50.834;4.280;2022-08-19T07:18:14;20.90;99.90
23289;DHT22;11813;50.834;4.280;2022-08-19T07:20:40;20.90;99.90
23289;DHT22;11813;50.834;4.280;2022-08-19T07:23:06;21.00;99.90
23289;DHT22;11813;50.834;4.280;2022-08-19T07:25:32;21.10;99.90
23289;DHT22;11813;50.834;4.280;2022-08-19T07:27:58;21.00;99.90
23289;DHT22;11813;50.834;4.280;2022-08-19T07:30:23;21.00;99.90
23289;DHT22;11813;50.834;4.280;2022-08-19T07:32:49;21.10;99.90
23289;DHT22;11813;50.834;4.280;2022-08-19T07:35:17;21.20;99.90
23289;DHT22;11813;50.834;4.280;2022-08-19T07:37:45;21.20;99.90
23289;DHT22;11813;50.834;4.280;2022-08-19T07:40:11;21.30;99.90
23289;DHT22;11813;50.834;4.280;2022-08-19T07:42:37;21.20;99.90
23289;DHT22;11813;50.834;4.280;2022-08-19T07:45:05;21.30;99.90
23289;DHT22;11813;50.834;4.280;2022-08-19T07:47:31;21.50;99.90
23289;DHT22;11813;50.834;4.280;2022-08-19T07:49:56;21.60;99.90
23289;DHT22;11813;50.834;4.280;2022-08-19T07:52:22;21.70;99.90
23289;DHT22;11813;50.834;4.280;2022-08-19T07:54:48;21.70;99.90
23289;DHT22;11813;50.834;4.280;2022-08-19T07:57:15;21.60;99.90
23289;DHT22;11813;50.834;4.280;2022-08-19T07:59:41;21.60;99.90
23289;DHT22;11813;50.834;4.280;2022-08-19T08:02:08;21.60;99.90
23289;DHT22;11813;50.834;4.280;2022-08-19T08:04:34;21.60;99.90
23289;DHT22;11813;50.834;4.280;2022-08-19T08:07:18;21.60;99.90
23289;DHT22;11813;50.834;4.280;2022-08-19T08:10:04;21.70;99.90
23289;DHT22;11813;50.834;4.280;2022-08-19T08:12:35;21.90;99.90
23289;DHT22;11813;50.834;4.280;2022-08-19T08:15:10;21.90;99.90
23289;DHT22;11813;50.834;4.280;2022-08-19T08:17:36;21.90;99.90
23289;DHT22;11813;50.834;4.280;2022-08-19T08:20:04;22.10;99.90
23289;DHT22;11813;50.834;4.280;2022-08-19T08:22:32;22.20;99.90
23289;DHT22;11813;50.834;4.280;2022-08-19T08:25:19;22.20;99.90
23289;DHT22;11813;50.834;4.280;2022-08-19T08:27:45;22.30;99.90
23289;DHT22;11813;50.834;4.280;2022-08-19T08:30:17;22.30;99.90
23289;DHT22;11813;50.834;4.280;2022-08-19T08:32:43;22.40;99.90
23289;DHT22;11813;50.834;4.280;2022-08-19T08:35:13;22.40;99.90
23289;DHT22;11813;50.834;4.280;2022-08-19T08:37:39;22.50;99.90
23289;DHT22;11813;50.834;4.280;2022-08-19T08:40:16;22.40;99.90
23289;DHT22;11813;50.834;4.280;2022-08-19T08:42:57;22.40;99.90
23289;DHT22;11813;50.834;4.280;2022-08-19T08:45:26;22.40;99.90
23289;DHT22;11813;50.834;4.280;2022-08-19T08:47:53;22.40;99.90
23289;DHT22;11813;50.834;4.280;2022-08-19T08:50:42;22.30;99.90
23289;DHT22;11813;50.834;4.280;2022-08-19T08:53:13;22.30;99.90
23289;DHT22;11813;50.834;4.280;2022-08-19T08:55:40;22.40;99.90
23289;DHT22;11813;50.834;4.280;2022-08-19T08:58:10;22.40;99.90
23289;DHT22;11813;50.834;4.280;2022-08-19T09:00:44;22.30;99.90
23289;DHT22;11813;50.834;4.280;2022-08-19T09:03:18;22.50;99.90
23289;DHT22;11813;50.834;4.280;2022-08-19T09:06:07;22.60;99.90
23289;DHT22;11813;50.834;4.280;2022-08-19T09:12:00;22.80;99.90
23289;DHT22;11813;50.834;4.280;2022-08-19T09:17:11;22.70;99.90
23289;DHT22;11813;50.834;4.280;2022-08-19T09:19:56;22.70;99.90
23289;DHT22;11813;50.834;4.280;2022-08-19T09:22:22;22.60;99.90
23289;DHT22;11813;50.834;4.280;2022-08-19T09:24:51;22.60;99.90
23289;DHT22;11813;50.834;4.280;2022-08-19T09:27:19;22.50;99.90
23289;DHT22;11813;50.834;4.280;2022-08-19T09:29:46;22.70;99.90
23289;DHT22;11813;50.834;4.280;2022-08-19T09:32:13;22.70;99.90
23289;DHT22;11813;50.834;4.280;2022-08-19T09:34:39;22.80;99.90
23289;DHT22;11813;50.834;4.280;2022-08-19T09:37:05;22.80;99.90
23289;DHT22;11813;50.834;4.280;2022-08-19T09:39:30;22.70;99.90
23289;DHT22;11813;50.834;4.280;2022-08-19T09:41:56;22.80;99.90
23289;DHT22;11813;50.834;4.280;2022-08-19T09:44:22;22.80;99.90
23289;DHT22;11813;50.834;4.280;2022-08-19T09:46:49;22.90;99.90
23289;DHT22;11813;50.834;4.280;2022-08-19T09:49:16;23.00;99.90
23289;DHT22;11813;50.834;4.280;2022-08-19T09:51:42;23.00;99.90
23289;DHT22;11813;50.834;4.280;2022-08-19T09:54:08;23.10;99.90
23289;DHT22;11813;50.834;4.280;2022-08-19T09:56:33;23.10;99.90
23289;DHT22;11813;50.834;4.280;2022-08-19T09:59:01;23.00;99.90
23289;DHT22;11813;50.834;4.280;2022-08-19T10:01:29;23.00;99.90
23289;DHT22;11813;50.834;4.280;2022-08-19T10:03:57;23.20;99.90
23289;DHT22;11813;50.834;4.280;2022-08-19T10:06:26;23.20;99.90
23289;DHT22;11813;50.834;4.280;2022-08-19T10:08:55;23.20;99.90
23289;DHT22;11813;50.834;4.280;2022-08-19T10:11:21;23.30;99.90
23289;DHT22;11813;50.834;4.280;2022-08-19T10:13:48;23.40;99.90
23289;DHT22;11813;50.834;4.280;2022-08-19T10:16:17;23.50;99.90
23289;DHT22;11813;50.834;4.280;2022-08-19T10:18:45;23.40;99.90
23289;DHT22;11813;50.834;4.280;2022-08-19T10:21:12;23.30;99.90
23289;DHT22;11813;50.834;4.280;2022-08-19T10:23:40;23.30;99.90
23289;DHT22;11813;50.834;4.280;2022-08-19T10:26:10;23.30;99.90
23289;DHT22;11813;50.834;4.280;2022-08-19T10:28:36;23.40;99.90
23289;DHT22;11813;50.834;4.280;2022-08-19T10:31:12;23.30;99.90
23289;DHT22;11813;50.834;4.280;2022-08-19T10:33:38;23.30;99.90
23289;DHT22;11813;50.834;4.280;2022-08-19T10:36:13;23.30;99.90
23289;DHT22;11813;50.834;4.280;2022-08-19T10:38:43;23.40;99.90
23289;DHT22;11813;50.834;4.280;2022-08-19T10:41:19;23.40;99.90
23289;DHT22;11813;50.834;4.280;2022-08-19T10:43:45;23.50;99.90
23289;DHT22;11813;50.834;4.280;2022-08-19T10:46:15;23.50;99.90
23289;DHT22;11813;50.834;4.280;2022-08-19T10:48:41;23.60;99.90
23289;DHT22;11813;50.834;4.280;2022-08-19T10:51:07;23.60;99.90
23289;DHT22;11813;50.834;4.280;2022-08-19T10:53:52;23.40;99.90
23289;DHT22;11813;50.834;4.280;2022-08-19T10:56:18;23.40;99.90
23289;DHT22;11813;50.834;4.280;2022-08-19T10:59:03;23.40;99.90
23289;DHT22;11813;50.834;4.280;2022-08-19T11:01:31;23.30;99.90
23289;DHT22;11813;50.834;4.280;2022-08-19T11:04:02;23.30;99.90
23289;DHT22;11813;50.834;4.280;2022-08-19T11:06:29;23.50;99.90
23289;DHT22;11813;50.834;4.280;2022-08-19T11:08:56;23.70;99.90
23289;DHT22;11813;50.834;4.280;2022-08-19T11:11:22;23.50;99.90
23289;DHT22;11813;50.834;4.280;2022-08-19T11:13:48;23.70;99.90
23289;DHT22;11813;50.834;4.280;2022-08-19T11:16:25;23.80;99.90
23289;DHT22;11813;50.834;4.280;2022-08-19T11:18:54;23.80;99.90
23289;DHT22;11813;50.834;4.280;2022-08-19T11:21:26;23.70;99.90
23289;DHT22;11813;50.834;4.280;2022-08-19T11:23:55;23.50;99.90
23289;DHT22;11813;50.834;4.280;2022-08-19T11:26:21;23.60;99.90
23289;DHT22;11813;50.834;4.280;2022-08-19T11:28:48;23.70;99.90
23289;DHT22;11813;50.834;4.280;2022-08-19T11:31:18;23.80;99.90
23289;DHT22;11813;50.834;4.280;2022-08-19T11:33:45;23.70;99.90
23289;DHT22;11813;50.834;4.280;2022-08-19T11:36:11;23.90;99.90
23289;DHT22;11813;50.834;4.280;2022-08-19T11:38:37;23.90;99.90
23289;DHT22;11813;50.834;4.280;2022-08-19T11:41:05;24.00;99.90
23289;DHT22;11813;50.834;4.280;2022-08-19T11:43:33;24.20;99.90
23289;DHT22;11813;50.834;4.280;2022-08-19T11:45:59;24.30;99.90
23289;DHT22;11813;50.834;4.280;2022-08-19T11:48:25;24.20;99.90
23289;DHT22;11813;50.834;4.280;2022-08-19T11:50:54;24.20;99.90
23289;DHT22;11813;50.834;4.280;2022-08-19T11:53:22;24.30;99.90
23289;DHT22;11813;50.834;4.280;2022-08-19T11:55:48;24.60;99.90
23289;DHT22;11813;50.834;4.280;2022-08-19T11:58:16;24.80;99.90
23289;DHT22;11813;50.834;4.280;2022-08-19T12:00:43;25.10;99.90
23289;DHT22;11813;50.834;4.280;2022-08-19T12:03:12;25.10;99.90
23289;DHT22;11813;50.834;4.280;2022-08-19T12:05:38;25.30;99.90
23289;DHT22;11813;50.834;4.280;2022-08-19T12:08:05;25.60;99.90
23289;DHT22;11813;50.834;4.280;2022-08-19T12:10:32;25.60;99.90
23289;DHT22;11813;50.834;4.280;2022-08-19T12:12:57;25.60;99.90
23289;DHT22;11813;50.834;4.280;2022-08-19T12:15:23;25.40;99.90
23289;DHT22;11813;50.834;4.280;2022-08-19T12:17:49;25.60;99.90
23289;DHT22;11813;50.834;4.280;2022-08-19T12:20:15;25.80;99.90
23289;DHT22;11813;50.834;4.280;2022-08-19T12:22:42;26.00;99.90
23289;DHT22;11813;50.834;4.280;2022-08-19T12:25:11;25.90;99.90
23289;DHT22;11813;50.834;4.280;2022-08-19T12:27:38;25.70;99.90
23289;DHT22;11813;50.834;4.280;2022-08-19T12:30:05;25.80;99.90
23289;DHT22;11813;50.834;4.280;2022-08-19T12:32:31;25.80;99.90
23289;DHT22;11813;50.834;4.280;2022-08-19T12:34:57;25.50;99.90
23289;DHT22;11813;50.834;4.280;2022-08-19T12:37:22;25.60;99.90
23289;DHT22;11813;50.834;4.280;2022-08-19T12:39:48;25.90;99.90
23289;DHT22;11813;50.834;4.280;2022-08-19T12:42:14;26.00;99.90
23289;DHT22;11813;50.834;4.280;2022-08-19T12:44:41;25.90;99.90
23289;DHT22;11813;50.834;4.280;2022-08-19T12:47:09;25.90;99.90
23289;DHT22;11813;50.834;4.280;2022-08-19T12:49:35;26.10;99.90
23289;DHT22;11813;50.834;4.280;2022-08-19T12:52:03;26.50;99.90
23289;DHT22;11813;50.834;4.280;2022-08-19T12:54:29;26.80;99.90
23289;DHT22;11813;50.834;4.280;2022-08-19T12:56:56;26.90;99.90
23289;DHT22;11813;50.834;4.280;2022-08-19T12:59:22;27.00;99.90
23289;DHT22;11813;50.834;4.280;2022-08-19T13:01:48;27.10;99.90
23289;DHT22;11813;50.834;4.280;2022-08-19T13:04:13;27.10;99.90
23289;DHT22;11813;50.834;4.280;2022-08-19T13:06:39;27.20;99.90
23289;DHT22;11813;50.834;4.280;2022-08-19T13:09:05;27.20;99.90
23289;DHT22;11813;50.834;4.280;2022-08-19T13:11:31;27.00;99.90
23289;DHT22;11813;50.834;4.280;2022-08-19T13:13:59;26.70;99.90
23289;DHT22;11813;50.834;4.280;2022-08-19T13:16:25;26.60;99.90
23289;DHT22;11813;50.834;4.280;2022-08-19T13:18:54;26.50;99.90
23289;DHT22;11813;50.834;4.280;2022-08-19T13:21:22;26.30;99.90
23289;DHT22;11813;50.834;4.280;2022-08-19T13:23:48;26.30;99.90
23289;DHT22;11813;50.834;4.280;2022-08-19T13:26:15;26.40;99.90
23289;DHT22;11813;50.834;4.280;2022-08-19T13:28:42;26.40;99.90
23289;DHT22;11813;50.834;4.280;2022-08-19T13:31:29;26.60;99.90
23289;DHT22;11813;50.834;4.280;2022-08-19T13:34:14;26.90;99.90
23289;DHT22;11813;50.834;4.280;2022-08-19T13:36:40;26.80;99.90
23289;DHT22;11813;50.834;4.280;2022-08-19T13:39:07;26.60;99.90
23289;DHT22;11813;50.834;4.280;2022-08-19T13:41:37;26.40;99.90
23289;DHT22;11813;50.834;4.280;2022-08-19T13:44:04;26.30;99.90
23289;DHT22;11813;50.834;4.280;2022-08-19T13:46:31;26.40;99.90
23289;DHT22;11813;50.834;4.280;2022-08-19T13:48:56;26.20;99.90
23289;DHT22;11813;50.834;4.280;2022-08-19T13:51:22;26.20;99.90
23289;DHT22;11813;50.834;4.280;2022-08-19T13:53:48;26.10;99.90
23289;DHT22;11813;50.834;4.280;2022-08-19T13:56:17;25.80;99.90
23289;DHT22;11813;50.834;4.280;2022-08-19T13:58:42;25.50;99.90
23289;DHT22;11813;50.834;4.280;2022-08-19T14:01:09;25.30;99.90
23289;DHT22;11813;50.834;4.280;2022-08-19T14:03:35;24.80;99.90
23289;DHT22;11813;50.834;4.280;2022-08-19T14:06:01;24.50;99.90
23289;DHT22;11813;50.834;4.280;2022-08-19T14:08:27;24.40;99.90
23289;DHT22;11813;50.834;4.280;2022-08-19T14:10:54;24.50;99.90
23289;DHT22;11813;50.834;4.280;2022-08-19T14:13:22;24.50;99.90
23289;DHT22;11813;50.834;4.280;2022-08-19T14:15:48;24.50;99.90
23289;DHT22;11813;50.834;4.280;2022-08-19T14:18:15;24.50;99.90
23289;DHT22;11813;50.834;4.280;2022-08-19T14:20:41;24.60;99.90
23289;DHT22;11813;50.834;4.280;2022-08-19T14:23:07;24.70;99.90
23289;DHT22;11813;50.834;4.280;2022-08-19T14:25:33;24.50;99.90
23289;DHT22;11813;50.834;4.280;2022-08-19T14:28:00;24.40;99.90
23289;DHT22;11813;50.834;4.280;2022-08-19T14:30:29;24.40;99.90
23289;DHT22;11813;50.834;4.280;2022-08-19T14:32:58;24.30;99.90
23289;DHT22;11813;50.834;4.280;2022-08-19T14:35:24;24.40;99.90
23289;DHT22;11813;50.834;4.280;2022-08-19T14:37:50;24.40;99.90
23289;DHT22;11813;50.834;4.280;2022-08-19T14:40:22;24.30;99.90
23289;DHT22;11813;50.834;4.280;2022-08-19T14:42:51;24.40;99.90
23289;DHT22;11813;50.834;4.280;2022-08-19T14:45:17;24.50;99.90
23289;DHT22;11813;50.834;4.280;2022-08-19T14:47:43;24.50;99.90
23289;DHT22;11813;50.834;4.280;2022-08-19T14:50:10;24.80;99.90
23289;DHT22;11813;50.834;4.280;2022-08-19T14:52:36;25.30;99.90
23289;DHT22;11813;50.834;4.280;2022-08-19T14:55:03;25.60;99.90
23289;DHT22;11813;50.834;4.280;2022-08-19T14:57:29;26.10;99.90
23289;DHT22;11813;50.834;4.280;2022-08-19T14:59:55;26.80;99.90
23289;DHT22;11813;50.834;4.280;2022-08-19T15:02:22;27.20;99.90
23289;DHT22;11813;50.834;4.280;2022-08-19T15:04:48;27.40;99.90
23289;DHT22;11813;50.834;4.280;2022-08-19T15:07:13;27.80;99.90
23289;DHT22;11813;50.834;4.280;2022-08-19T15:09:39;28.30;99.90
23289;DHT22;11813;50.834;4.280;2022-08-19T15:12:05;28.40;99.90
23289;DHT22;11813;50.834;4.280;2022-08-19T15:14:30;28.30;99.90
23289;DHT22;11813;50.834;4.280;2022-08-19T15:17:03;28.10;99.90
23289;DHT22;11813;50.834;4.280;2022-08-19T15:19:30;27.90;99.90
23289;DHT22;11813;50.834;4.280;2022-08-19T15:21:56;27.60;99.90
23289;DHT22;11813;50.834;4.280;2022-08-19T15:24:22;27.30;99.90
23289;DHT22;11813;50.834;4.280;2022-08-19T15:26:51;27.00;99.90
23289;DHT22;11813;50.834;4.280;2022-08-19T15:29:16;26.70;99.90
23289;DHT22;11813;50.834;4.280;2022-08-19T15:31:42;26.40;99.90
23289;DHT22;11813;50.834;4.280;2022-08-19T15:34:08;26.30;99.90
23289;DHT22;11813;50.834;4.280;2022-08-19T15:36:34;26.10;99.90
23289;DHT22;11813;50.834;4.280;2022-08-19T15:39:00;26.10;99.90
23289;DHT22;11813;50.834;4.280;2022-08-19T15:41:29;26.00;99.90
23289;DHT22;11813;50.834;4.280;2022-08-19T15:44:00;25.80;99.90
23289;DHT22;11813;50.834;4.280;2022-08-19T15:46:30;25.60;99.90